GMP weather

Gimpo International Airport
Seoul, Seoul Teugbyeolsi, South Korea

Public forecast

Using degrees Celsius for public forecast. Weather courtesy of forecast.io.

Current aviation weather report (METAR) for Gimpo International Airport

Retrieved 2019/11/19 11:00 UTC (44 minutes ago):

RKSS 191100Z 34002KT CAVOK M00/M04 Q1028 NOSIG

Aviation forecast (TAF) for Gimpo International Airport

Retrieved 2019/11/19 06:00 UTC (6 hours ago):

TAF RKSS 190500Z 1906/2012 34006KT CAVOK TNM06/1922Z TX06/2006Z TEMPO 1906/1909 32015G25KT 9999 SCT040